KCLT/CLT METAR and TAF weather

Enter ICAO airport designator
Station Type Date Time Source
KCLT METAR 2020/01/28 04:52 UTC NOAA

KCLT 280452Z 30005KT 10SM FEW050 06/01 A2990 RMK AO2 SLP126 T00560011 401280022


Station Type Date Time Source
KCLT Decoded METAR 2020/01/28 04:52 UTC NOAA

CHARLOTTE/DOUGLAS INTERNATIONAL , NC, United States (KCLT) 35-13N 80-57W 220M
Jan 27, 2020 - 11:52 PM EST / 2020.01.28 0452 UTC
Wind: from the WNW (300 degrees) at 6 MPH (5 KT):0
Visibility: 10 mile(s):0
Sky conditions: mostly clear
Temperature: 42.1 F (5.6 C)
Dew Point: 34.0 F (1.1 C)
Relative Humidity: 72%
Pressure (altimeter): 29.9 in. Hg (1012 hPa)
ob: KCLT 280452Z 30005KT 10SM FEW050 06/01 A2990 RMK AO2 SLP126 T00560011 401280022
cycle: 5

Station Type Date Time Source
KCLT TAF 2020/01/28 02:42 UTC NOAA

TAF
AMD KCLT 280141Z 2802/2906 30004KT P6SM SCT070
FM280600 32003KT P6SM SKC
FM281400 33005KT P6SM FEW250
FM282000 26005KT P6SM SCT250

Example: see airport list